Time,TemperatureF,DewpointF,PressureIn,WindDirection,WindDirectionDegrees,WindSpeedMPH,WindSpeedGustMPH,Humidity,HourlyPrecipIn,Conditions,Clouds,dailyrainin,SoftwareType,DateUTC
2013-08-27 00:10:00,75.3,68.0,29.86,WSW,257,1.0,3.0,78,0.02,,,0.03,weatherlink.com 1.10,2013-08-27 04:10:00,
2013-08-27 00:25:00,75.4,68.0,29.85,WSW,245,1.0,5.0,78,0.01,,,0.03,weatherlink.com 1.10,2013-08-27 04:25:00,
2013-08-27 00:40:00,75.3,68.0,29.85,WSW,250,2.0,7.0,77,0.00,,,0.03,weatherlink.com 1.10,2013-08-27 04:40:00,
2013-08-27 00:55:00,75.4,67.0,29.84,SW,222,1.0,6.0,76,0.00,,,0.03,weatherlink.com 1.10,2013-08-27 04:55:00,
2013-08-27 01:10:00,75.4,68.0,29.84,SW,216,1.0,6.0,77,0.00,,,0.03,weatherlink.com 1.10,2013-08-27 05:10:00,
2013-08-27 01:25:00,75.3,68.0,29.84,SW,236,1.0,7.0,77,0.00,,,0.03,weatherlink.com 1.10,2013-08-27 05:25:00,
2013-08-27 01:40:00,75.2,68.0,29.83,WSW,242,2.0,8.0,77,0.00,,,0.03,weatherlink.com 1.10,2013-08-27 05:40:00,
2013-08-27 01:55:00,75.2,68.0,29.82,WSW,255,4.0,6.0,77,0.00,,,0.03,weatherlink.com 1.10,2013-08-27 05:55:00,
2013-08-27 02:10:00,75.1,68.0,29.82,WSW,246,4.0,5.0,78,0.00,,,0.03,weatherlink.com 1.10,2013-08-27 06:10:00,
2013-08-27 02:25:00,74.8,68.0,29.82,West,270,2.0,11.0,79,0.00,,,0.03,weatherlink.com 1.10,2013-08-27 06:25:00,
2013-08-27 02:40:00,74.4,68.0,29.82,West,273,3.0,8.0,80,0.00,,,0.03,weatherlink.com 1.10,2013-08-27 06:40:00,
2013-08-27 02:55:00,74.1,68.0,29.81,WSW,251,4.0,6.0,81,0.00,,,0.03,weatherlink.com 1.10,2013-08-27 06:55:00,
2013-08-27 03:10:00,73.9,68.0,29.80,WNW,295,1.0,4.0,82,0.00,,,0.03,weatherlink.com 1.10,2013-08-27 07:10:00,
2013-08-27 03:25:00,73.5,68.0,29.80,West,271,1.0,6.0,83,0.00,,,0.03,weatherlink.com 1.10,2013-08-27 07:25:00,
2013-08-27 03:40:00,73.1,68.0,29.79,West,271,3.0,3.0,84,0.00,,,0.03,weatherlink.com 1.10,2013-08-27 07:40:00,
2013-08-27 03:55:00,73.3,68.0,29.78,WSW,248,4.0,5.0,84,0.00,,,0.03,weatherlink.com 1.10,2013-08-27 07:55:00,
2013-08-27 04:10:00,73.5,68.0,29.78,WSW,248,2.0,7.0,83,0.00,,,0.03,weatherlink.com 1.10,2013-08-27 08:10:00,
2013-08-27 04:25:00,73.9,68.0,29.77,WSW,253,2.0,6.0,81,0.00,,,0.03,weatherlink.com 1.10,2013-08-27 08:25:00,
2013-08-27 04:40:00,74.1,68.0,29.77,WSW,238,4.0,9.0,80,0.00,,,0.03,weatherlink.com 1.10,2013-08-27 08:40:00,
2013-08-27 04:55:00,74.2,68.0,29.77,WSW,253,1.0,8.0,80,0.00,,,0.03,weatherlink.com 1.10,2013-08-27 08:55:00,
2013-08-27 05:10:00,74.0,68.0,29.77,WSW,248,1.0,8.0,80,0.00,,,0.03,weatherlink.com 1.10,2013-08-27 09:10:00,
2013-08-27 05:25:00,73.7,68.0,29.77,West,259,2.0,10.0,81,0.00,,,0.03,weatherlink.com 1.10,2013-08-27 09:25:00,
2013-08-27 05:40:00,73.5,68.0,29.77,WSW,238,3.0,4.0,82,0.00,,,0.03,weatherlink.com 1.10,2013-08-27 09:40:00,
2013-08-27 05:55:00,73.4,68.0,29.77,WSW,242,2.0,7.0,82,0.00,,,0.03,weatherlink.com 1.10,2013-08-27 09:55:00,
2013-08-27 06:10:00,73.5,68.0,29.77,WSW,256,2.0,7.0,82,0.00,,,0.03,weatherlink.com 1.10,2013-08-27 10:10:00,
2013-08-27 06:25:00,73.7,68.0,29.77,WSW,257,4.0,10.0,81,0.00,,,0.03,weatherlink.com 1.10,2013-08-27 10:25:00,
2013-08-27 06:40:00,74.0,68.0,29.77,South,184,2.0,10.0,80,0.00,,,0.03,weatherlink.com 1.10,2013-08-27 10:40:00,
2013-08-27 06:55:00,73.8,68.0,29.78,West,265,7.0,9.0,81,0.00,,,0.03,weatherlink.com 1.10,2013-08-27 10:55:00,
2013-08-27 07:10:00,73.7,68.0,29.78,SW,219,4.0,5.0,81,0.00,,,0.03,weatherlink.com 1.10,2013-08-27 11:10:00,
2013-08-27 07:25:00,73.4,67.0,29.79,NNW,345,3.0,9.0,81,0.00,,,0.03,weatherlink.com 1.10,2013-08-27 11:25:00,
2013-08-27 07:40:00,73.2,67.0,29.80,WNW,290,5.0,11.0,82,0.00,,,0.03,weatherlink.com 1.10,2013-08-27 11:40:00,
2013-08-27 07:55:00,73.2,67.0,29.80,NE,44,1.0,7.0,82,0.00,,,0.03,weatherlink.com 1.10,2013-08-27 11:55:00,
2013-08-27 08:10:00,73.0,67.0,29.80,West,266,5.0,9.0,82,0.00,,,0.03,weatherlink.com 1.10,2013-08-27 12:10:00,
2013-08-27 08:25:00,73.0,67.0,29.81,WSW,239,1.0,9.0,82,0.00,,,0.03,weatherlink.com 1.10,2013-08-27 12:25:00,
2013-08-27 08:40:00,73.2,67.0,29.81,West,273,5.0,9.0,82,0.00,,,0.03,weatherlink.com 1.10,2013-08-27 12:40:00,
2013-08-27 08:55:00,73.8,68.0,29.81,NE,39,3.0,7.0,81,0.00,,,0.03,weatherlink.com 1.10,2013-08-27 12:55:00,
2013-08-27 09:10:00,74.6,68.0,29.81,ENE,76,7.0,8.0,79,0.00,,,0.03,weatherlink.com 1.10,2013-08-27 13:10:00,
2013-08-27 09:25:00,75.2,68.0,29.81,NNW,340,1.0,10.0,77,0.00,,,0.03,weatherlink.com 1.10,2013-08-27 13:25:00,
2013-08-27 09:41:00,75.1,68.0,29.82,WSW,252,1.0,7.0,78,0.00,,,0.03,weatherlink.com 1.10,2013-08-27 13:41:00,
2013-08-27 09:56:00,75.7,68.0,29.81,SE,142,1.0,8.0,76,0.00,,,0.03,weatherlink.com 1.10,2013-08-27 13:56:00,
2013-08-27 10:11:00,77.2,68.0,29.82,NE,49,2.0,7.0,72,0.00,,,0.03,weatherlink.com 1.10,2013-08-27 14:11:00,
2013-08-27 10:26:00,77.7,68.0,29.82,NE,43,4.0,7.0,72,0.00,,,0.03,weatherlink.com 1.10,2013-08-27 14:26:00,
2013-08-27 10:41:00,79.0,68.0,29.82,ENE,73,5.0,8.0,69,0.00,,,0.03,weatherlink.com 1.10,2013-08-27 14:41:00,
2013-08-27 10:56:00,78.4,68.0,29.82,West,266,2.0,12.0,70,0.00,,,0.03,weatherlink.com 1.10,2013-08-27 14:56:00,
2013-08-27 11:11:00,79.8,68.0,29.83,ENE,72,1.0,8.0,68,0.00,,,0.03,weatherlink.com 1.10,2013-08-27 15:11:00,
2013-08-27 11:26:00,79.8,68.0,29.82,NNE,32,8.0,10.0,68,0.00,,,0.03,weatherlink.com 1.10,2013-08-27 15:26:00,
2013-08-27 11:41:00,80.5,68.0,29.83,WNW,290,2.0,8.0,66,0.00,,,0.03,weatherlink.com 1.10,2013-08-27 15:41:00,
2013-08-27 11:56:00,80.2,68.0,29.83,ENE,76,4.0,10.0,66,0.00,,,0.03,weatherlink.com 1.10,2013-08-27 15:56:00,
2013-08-27 12:11:00,81.3,68.0,29.83,SW,226,1.0,8.0,64,0.00,,,0.00,weatherlink.com 1.10,2013-08-27 16:11:00,
2013-08-27 12:26:00,82.4,68.0,29.83,North,9,3.0,13.0,61,0.00,,,0.00,weatherlink.com 1.10,2013-08-27 16:26:00,
2013-08-27 12:41:00,82.1,68.0,29.83,WSW,256,7.0,12.0,62,0.00,,,0.00,weatherlink.com 1.10,2013-08-27 16:41:00,
2013-08-27 12:56:00,82.3,67.0,29.83,ENE,65,8.0,12.0,61,0.00,,,0.00,weatherlink.com 1.10,2013-08-27 16:56:00,
2013-08-27 13:11:00,82.9,68.0,29.83,NNW,347,2.0,10.0,60,0.00,,,0.00,weatherlink.com 1.10,2013-08-27 17:11:00,
2013-08-27 13:26:00,82.5,67.0,29.83,NNW,330,2.0,8.0,60,0.00,,,0.00,weatherlink.com 1.10,2013-08-27 17:26:00,
2013-08-27 13:41:00,83.2,67.0,29.83,NNE,27,6.0,10.0,58,0.00,,,0.00,weatherlink.com 1.10,2013-08-27 17:41:00,
2013-08-27 13:56:00,83.7,67.0,29.82,WNW,283,3.0,11.0,57,0.00,,,0.00,weatherlink.com 1.10,2013-08-27 17:56:00,
2013-08-27 14:11:00,84.3,67.0,29.82,West,260,4.0,11.0,56,0.00,,,0.00,weatherlink.com 1.10,2013-08-27 18:11:00,
2013-08-27 14:26:00,85.0,67.0,29.82,NNW,337,2.0,8.0,55,0.00,,,0.00,weatherlink.com 1.10,2013-08-27 18:26:00,
2013-08-27 14:41:00,85.8,66.0,29.81,SW,226,0.0,9.0,52,0.00,,,0.00,weatherlink.com 1.10,2013-08-27 18:41:00,
2013-08-27 14:56:00,85.8,66.0,29.81,NW,316,1.0,8.0,51,0.00,,,0.00,weatherlink.com 1.10,2013-08-27 18:56:00,
2013-08-27 15:11:00,86.5,66.0,29.81,NE,49,0.0,7.0,50,0.00,,,0.00,weatherlink.com 1.10,2013-08-27 19:11:00,
2013-08-27 15:26:00,86.5,66.0,29.80,ESE,120,4.0,8.0,50,0.00,,,0.00,weatherlink.com 1.10,2013-08-27 19:26:00,
2013-08-27 15:41:00,87.1,66.0,29.80,ENE,74,3.0,6.0,50,0.00,,,0.00,weatherlink.com 1.10,2013-08-27 19:41:00,
2013-08-27 15:56:00,87.3,66.0,29.80,NNW,332,5.0,7.0,49,0.00,,,0.00,weatherlink.com 1.10,2013-08-27 19:56:00,
2013-08-27 16:11:00,86.6,65.0,29.80,NW,311,3.0,8.0,49,0.00,,,0.00,weatherlink.com 1.10,2013-08-27 20:11:00,
2013-08-27 16:26:00,86.5,66.0,29.80,NE,56,2.0,9.0,51,0.00,,,0.00,weatherlink.com 1.10,2013-08-27 20:26:00,
2013-08-27 16:42:00,86.8,66.0,29.79,ENE,74,1.0,7.0,50,0.00,,,0.00,weatherlink.com 1.10,2013-08-27 20:42:00,
2013-08-27 16:56:00,86.8,66.0,29.79,East,86,3.0,6.0,50,0.00,,,0.00,weatherlink.com 1.10,2013-08-27 20:56:00,
2013-08-27 17:56:00,85.5,67.0,29.80,SE,142,0.0,7.0,54,0.00,,,0.00,weatherlink.com 1.10,2013-08-27 21:56:00,
2013-08-27 18:11:00,85.7,67.0,29.80,North,349,1.0,4.0,54,0.00,,,0.00,weatherlink.com 1.10,2013-08-27 22:11:00,
2013-08-27 18:26:00,85.3,67.0,29.80,NNE,16,2.0,5.0,55,0.00,,,0.00,weatherlink.com 1.10,2013-08-27 22:26:00,
2013-08-27 18:41:00,84.9,67.0,29.80,ENE,58,2.0,5.0,56,0.00,,,0.00,weatherlink.com 1.10,2013-08-27 22:41:00,
2013-08-27 18:56:00,84.8,67.0,29.80,SW,233,1.0,4.0,56,0.00,,,0.00,weatherlink.com 1.10,2013-08-27 22:56:00,
2013-08-27 19:11:00,84.3,67.0,29.81,NNE,28,2.0,4.0,57,0.00,,,0.00,weatherlink.com 1.10,2013-08-27 23:11:00,
2013-08-27 19:26:00,83.8,67.0,29.81,ENE,71,4.0,4.0,58,0.00,,,0.00,weatherlink.com 1.10,2013-08-27 23:26:00,
2013-08-27 19:41:00,83.4,67.0,29.82,East,98,2.0,4.0,59,0.00,,,0.00,weatherlink.com 1.10,2013-08-27 23:41:00,
2013-08-27 19:56:00,83.1,67.0,29.82,ESE,122,0.0,3.0,59,0.00,,,0.00,weatherlink.com 1.10,2013-08-27 23:56:00,
2013-08-27 20:11:00,82.9,67.0,29.82,ENE,66,2.0,5.0,59,0.00,,,0.00,weatherlink.com 1.10,2013-08-28 00:11:00,
2013-08-27 20:26:00,82.8,67.0,29.82,ENE,59,2.0,4.0,59,0.00,,,0.00,weatherlink.com 1.10,2013-08-28 00:26:00,
2013-08-27 20:41:00,82.1,67.0,29.82,SE,129,0.0,3.0,60,0.00,,,0.00,weatherlink.com 1.10,2013-08-28 00:41:00,
2013-08-27 20:56:00,81.9,67.0,29.83,ESE,113,2.0,3.0,60,0.00,,,0.00,weatherlink.com 1.10,2013-08-28 00:56:00,
2013-08-27 21:12:00,81.7,66.0,29.83,East,86,2.0,3.0,60,0.00,,,0.00,weatherlink.com 1.10,2013-08-28 01:12:00,
2013-08-27 21:27:00,81.4,66.0,29.83,SE,124,0.0,3.0,60,0.00,,,0.00,weatherlink.com 1.10,2013-08-28 01:27:00,
2013-08-27 21:42:00,81.2,66.0,29.83,ESE,123,0.0,2.0,60,0.00,,,0.00,weatherlink.com 1.10,2013-08-28 01:42:00,
2013-08-27 21:57:00,80.9,66.0,29.84,NNE,23,0.0,2.0,61,0.00,,,0.00,weatherlink.com 1.10,2013-08-28 01:57:00,
2013-08-27 22:42:00,80.6,66.0,29.85,ESE,118,0.0,1.0,61,0.00,,,0.00,weatherlink.com 1.10,2013-08-28 02:42:00,
2013-08-27 22:57:00,79.9,66.0,29.86,ESE,119,0.0,1.0,62,0.00,,,0.00,weatherlink.com 1.10,2013-08-28 02:57:00,
2013-08-27 23:12:00,79.6,66.0,29.86,ESE,119,0.0,0.0,63,0.00,,,0.00,weatherlink.com 1.10,2013-08-28 03:12:00,
2013-08-27 23:27:00,80.3,66.0,29.85,East,94,0.0,1.0,62,0.00,,,0.00,weatherlink.com 1.10,2013-08-28 03:27:00,
2013-08-27 23:42:00,79.7,66.0,29.85,East,96,0.0,0.0,63,0.00,,,0.00,weatherlink.com 1.10,2013-08-28 03:42:00,
2013-08-27 23:57:00,79.8,67.0,29.85,ESE,104,2.0,2.0,64,0.00,,,0.00,weatherlink.com 1.10,2013-08-28 03:57:00,